Subiaco, Arkansas
Current Conditions -  °F | °C
As of 6:53 PM on Monday 24 Nov 2014 (Local Time) from KRUE Reporting Station
Clear Clear  
Wind Chill: 48°   Ceiling: Unl
Heat Index: 48°   Visibility: 10mi
Dew Point: 27°   Wind: 3mph
Humidity: 44%   Direction: 280°W
Pressure: 30.01"   Gusts: NA
Location:  35.29°N, 93.63°W
Report Text: KRUE 250053Z AUTO 28003KT 10SM CLR 09/M03 A3001 RMK AO2 SLP159 T00891028
Loading
Personal Weather Stations






























Interactive Weather Map New forecast layout! Learn more

10-Day Weather Forecast

Advertisements
Track Severe Weather on mobile